sensor_id;sensor_type;location;lat;lon;timestamp;P1;durP1;ratioP1;P2;durP2;ratioP2
41721;SDS011;27407;24.142;-110.310;2023-05-07T00:00:17;14.18;;;2.70;;
41721;SDS011;27407;24.142;-110.310;2023-05-07T00:02:44;4.13;;;1.20;;
41721;SDS011;27407;24.142;-110.310;2023-05-07T00:05:11;14.55;;;2.08;;
41721;SDS011;27407;24.142;-110.310;2023-05-07T00:07:38;10.30;;;1.60;;
41721;SDS011;27407;24.142;-110.310;2023-05-07T00:10:05;12.85;;;1.58;;
41721;SDS011;27407;24.142;-110.310;2023-05-07T00:12:33;13.88;;;1.33;;
41721;SDS011;27407;24.142;-110.310;2023-05-07T00:15:01;10.00;;;1.25;;
41721;SDS011;27407;24.142;-110.310;2023-05-07T00:17:29;21.55;;;1.83;;
41721;SDS011;27407;24.142;-110.310;2023-05-07T00:19:56;20.20;;;2.17;;
41721;SDS011;27407;24.142;-110.310;2023-05-07T00:22:22;7.78;;;1.35;;
41721;SDS011;27407;24.142;-110.310;2023-05-07T00:24:49;31.92;;;2.40;;
41721;SDS011;27407;24.142;-110.310;2023-05-07T00:27:16;11.93;;;1.75;;
41721;SDS011;27407;24.142;-110.310;2023-05-07T00:29:42;11.88;;;2.20;;
41721;SDS011;27407;24.142;-110.310;2023-05-07T00:32:09;10.15;;;2.00;;
41721;SDS011;27407;24.142;-110.310;2023-05-07T00:34:35;11.20;;;1.80;;
41721;SDS011;27407;24.142;-110.310;2023-05-07T00:37:02;17.75;;;1.90;;
41721;SDS011;27407;24.142;-110.310;2023-05-07T00:39:29;16.77;;;2.70;;
41721;SDS011;27407;24.142;-110.310;2023-05-07T00:41:55;12.30;;;1.50;;
41721;SDS011;27407;24.142;-110.310;2023-05-07T00:44:22;16.05;;;1.63;;
41721;SDS011;27407;24.142;-110.310;2023-05-07T00:46:49;10.45;;;1.98;;
41721;SDS011;27407;24.142;-110.310;2023-05-07T00:49:15;17.52;;;2.15;;
41721;SDS011;27407;24.142;-110.310;2023-05-07T00:51:42;33.47;;;2.80;;
41721;SDS011;27407;24.142;-110.310;2023-05-07T00:54:09;15.65;;;2.10;;
41721;SDS011;27407;24.142;-110.310;2023-05-07T00:56:36;18.60;;;1.83;;
41721;SDS011;27407;24.142;-110.310;2023-05-07T00:59:04;23.52;;;2.45;;
41721;SDS011;27407;24.142;-110.310;2023-05-07T01:01:32;11.15;;;1.65;;
41721;SDS011;27407;24.142;-110.310;2023-05-07T01:03:58;11.05;;;1.60;;
41721;SDS011;27407;24.142;-110.310;2023-05-07T01:06:25;31.25;;;3.47;;
41721;SDS011;27407;24.142;-110.310;2023-05-07T01:08:53;63.40;;;6.75;;
41721;SDS011;27407;24.142;-110.310;2023-05-07T01:11:22;17.13;;;2.58;;
41721;SDS011;27407;24.142;-110.310;2023-05-07T01:13:50;17.48;;;1.85;;
41721;SDS011;27407;24.142;-110.310;2023-05-07T01:16:18;72.07;;;7.13;;
41721;SDS011;27407;24.142;-110.310;2023-05-07T01:18:45;26.15;;;2.30;;
41721;SDS011;27407;24.142;-110.310;2023-05-07T01:21:14;14.77;;;1.80;;
41721;SDS011;27407;24.142;-110.310;2023-05-07T01:23:43;10.55;;;1.73;;
41721;SDS011;27407;24.142;-110.310;2023-05-07T01:26:11;29.48;;;3.03;;
41721;SDS011;27407;24.142;-110.310;2023-05-07T01:28:38;41.53;;;3.72;;
41721;SDS011;27407;24.142;-110.310;2023-05-07T01:31:04;32.28;;;3.72;;
41721;SDS011;27407;24.142;-110.310;2023-05-07T01:33:33;29.67;;;3.55;;
41721;SDS011;27407;24.142;-110.310;2023-05-07T01:36:02;22.83;;;2.42;;
41721;SDS011;27407;24.142;-110.310;2023-05-07T01:38:31;26.70;;;3.25;;
41721;SDS011;27407;24.142;-110.310;2023-05-07T01:40:58;287.02;;;24.45;;
41721;SDS011;27407;24.142;-110.310;2023-05-07T01:43:32;19.73;;;2.20;;
41721;SDS011;27407;24.142;-110.310;2023-05-07T01:45:59;70.10;;;5.15;;
41721;SDS011;27407;24.142;-110.310;2023-05-07T01:48:28;15.57;;;2.35;;
41721;SDS011;27407;24.142;-110.310;2023-05-07T01:50:55;24.90;;;2.83;;
41721;SDS011;27407;24.142;-110.310;2023-05-07T01:53:22;31.65;;;3.15;;
41721;SDS011;27407;24.142;-110.310;2023-05-07T01:55:48;43.65;;;4.40;;
41721;SDS011;27407;24.142;-110.310;2023-05-07T01:58:15;13.98;;;2.15;;
41721;SDS011;27407;24.142;-110.310;2023-05-07T02:00:42;28.70;;;3.40;;
41721;SDS011;27407;24.142;-110.310;2023-05-07T02:03:08;50.00;;;3.75;;
41721;SDS011;27407;24.142;-110.310;2023-05-07T02:05:35;45.33;;;4.18;;
41721;SDS011;27407;24.142;-110.310;2023-05-07T02:08:02;158.32;;;14.20;;
41721;SDS011;27407;24.142;-110.310;2023-05-07T02:10:28;25.73;;;3.55;;
41721;SDS011;27407;24.142;-110.310;2023-05-07T02:12:55;16.45;;;2.20;;
41721;SDS011;27407;24.142;-110.310;2023-05-07T02:15:22;20.00;;;2.42;;
41721;SDS011;27407;24.142;-110.310;2023-05-07T02:17:58;31.33;;;3.22;;
41721;SDS011;27407;24.142;-110.310;2023-05-07T02:20:30;43.42;;;4.53;;
41721;SDS011;27407;24.142;-110.310;2023-05-07T02:22:56;42.00;;;4.13;;
41721;SDS011;27407;24.142;-110.310;2023-05-07T02:25:23;45.97;;;3.67;;
41721;SDS011;27407;24.142;-110.310;2023-05-07T02:27:50;31.30;;;3.03;;
41721;SDS011;27407;24.142;-110.310;2023-05-07T02:30:16;27.92;;;2.63;;
41721;SDS011;27407;24.142;-110.310;2023-05-07T02:32:43;21.20;;;2.25;;
41721;SDS011;27407;24.142;-110.310;2023-05-07T02:35:10;38.70;;;3.05;;
41721;SDS011;27407;24.142;-110.310;2023-05-07T02:37:37;29.70;;;3.80;;
41721;SDS011;27407;24.142;-110.310;2023-05-07T02:40:07;31.13;;;3.65;;
41721;SDS011;27407;24.142;-110.310;2023-05-07T02:42:34;34.65;;;2.60;;
41721;SDS011;27407;24.142;-110.310;2023-05-07T02:45:01;65.03;;;6.43;;
41721;SDS011;27407;24.142;-110.310;2023-05-07T02:47:27;23.13;;;2.10;;
41721;SDS011;27407;24.142;-110.310;2023-05-07T02:49:54;80.43;;;6.68;;
41721;SDS011;27407;24.142;-110.310;2023-05-07T02:52:21;45.67;;;3.88;;
41721;SDS011;27407;24.142;-110.310;2023-05-07T02:54:51;46.65;;;4.30;;
41721;SDS011;27407;24.142;-110.310;2023-05-07T02:57:18;19.38;;;1.85;;
41721;SDS011;27407;24.142;-110.310;2023-05-07T02:59:44;15.75;;;1.38;;
41721;SDS011;27407;24.142;-110.310;2023-05-07T03:02:11;12.43;;;1.98;;
41721;SDS011;27407;24.142;-110.310;2023-05-07T03:04:38;21.05;;;1.70;;
41721;SDS011;27407;24.142;-110.310;2023-05-07T03:07:05;91.15;;;7.68;;
41721;SDS011;27407;24.142;-110.310;2023-05-07T03:09:32;35.05;;;3.58;;
41721;SDS011;27407;24.142;-110.310;2023-05-07T03:11:58;26.05;;;3.28;;
41721;SDS011;27407;24.142;-110.310;2023-05-07T03:14:26;30.38;;;4.55;;
41721;SDS011;27407;24.142;-110.310;2023-05-07T03:16:53;176.68;;;17.80;;
41721;SDS011;27407;24.142;-110.310;2023-05-07T03:19:20;322.52;;;24.70;;
41721;SDS011;27407;24.142;-110.310;2023-05-07T03:21:46;162.05;;;12.50;;
41721;SDS011;27407;24.142;-110.310;2023-05-07T03:24:13;36.03;;;5.50;;
41721;SDS011;27407;24.142;-110.310;2023-05-07T03:26:40;45.03;;;3.55;;
41721;SDS011;27407;24.142;-110.310;2023-05-07T03:29:06;75.47;;;8.00;;
41721;SDS011;27407;24.142;-110.310;2023-05-07T03:31:33;114.97;;;9.85;;
41721;SDS011;27407;24.142;-110.310;2023-05-07T03:34:00;52.35;;;5.20;;
41721;SDS011;27407;24.142;-110.310;2023-05-07T03:36:27;56.10;;;4.57;;
41721;SDS011;27407;24.142;-110.310;2023-05-07T03:38:53;20.75;;;1.90;;
41721;SDS011;27407;24.142;-110.310;2023-05-07T03:41:22;32.60;;;2.97;;
41721;SDS011;27407;24.142;-110.310;2023-05-07T03:43:49;78.97;;;7.68;;
41721;SDS011;27407;24.142;-110.310;2023-05-07T03:46:16;26.20;;;2.95;;
41721;SDS011;27407;24.142;-110.310;2023-05-07T03:48:42;62.90;;;6.93;;
41721;SDS011;27407;24.142;-110.310;2023-05-07T03:51:09;46.92;;;4.63;;
41721;SDS011;27407;24.142;-110.310;2023-05-07T03:53:35;91.28;;;11.45;;
41721;SDS011;27407;24.142;-110.310;2023-05-07T03:56:02;75.97;;;10.55;;
41721;SDS011;27407;24.142;-110.310;2023-05-07T03:58:29;33.58;;;4.57;;
41721;SDS011;27407;24.142;-110.310;2023-05-07T04:00:56;37.88;;;4.53;;
41721;SDS011;27407;24.142;-110.310;2023-05-07T04:03:22;292.23;;;23.90;;
41721;SDS011;27407;24.142;-110.310;2023-05-07T04:05:58;95.60;;;9.98;;
41721;SDS011;27407;24.142;-110.310;2023-05-07T04:08:25;49.00;;;5.65;;
41721;SDS011;27407;24.142;-110.310;2023-05-07T04:10:55;25.73;;;3.58;;
41721;SDS011;27407;24.142;-110.310;2023-05-07T04:13:22;32.20;;;3.38;;
41721;SDS011;27407;24.142;-110.310;2023-05-07T04:15:49;32.92;;;4.65;;
41721;SDS011;27407;24.142;-110.310;2023-05-07T04:18:16;114.40;;;7.93;;
41721;SDS011;27407;24.142;-110.310;2023-05-07T04:20:43;157.73;;;12.20;;
41721;SDS011;27407;24.142;-110.310;2023-05-07T04:23:10;128.93;;;12.50;;
41721;SDS011;27407;24.142;-110.310;2023-05-07T04:25:37;111.18;;;9.88;;
41721;SDS011;27407;24.142;-110.310;2023-05-07T04:28:03;86.60;;;9.32;;
41721;SDS011;27407;24.142;-110.310;2023-05-07T04:30:31;207.68;;;15.32;;
41721;SDS011;27407;24.142;-110.310;2023-05-07T04:32:57;103.53;;;9.93;;
41721;SDS011;27407;24.142;-110.310;2023-05-07T04:35:24;218.05;;;17.25;;
41721;SDS011;27407;24.142;-110.310;2023-05-07T04:37:51;131.77;;;12.07;;
41721;SDS011;27407;24.142;-110.310;2023-05-07T04:40:25;110.38;;;9.25;;
41721;SDS011;27407;24.142;-110.310;2023-05-07T04:42:58;75.47;;;7.32;;
41721;SDS011;27407;24.142;-110.310;2023-05-07T04:45:25;170.48;;;15.07;;
41721;SDS011;27407;24.142;-110.310;2023-05-07T04:47:52;89.85;;;9.25;;
41721;SDS011;27407;24.142;-110.310;2023-05-07T04:50:18;62.88;;;6.47;;
41721;SDS011;27407;24.142;-110.310;2023-05-07T04:52:48;66.38;;;7.68;;
41721;SDS011;27407;24.142;-110.310;2023-05-07T04:55:15;64.13;;;7.97;;
41721;SDS011;27407;24.142;-110.310;2023-05-07T04:57:42;78.88;;;7.72;;
41721;SDS011;27407;24.142;-110.310;2023-05-07T05:00:09;58.88;;;6.65;;
41721;SDS011;27407;24.142;-110.310;2023-05-07T05:02:35;85.22;;;7.20;;
41721;SDS011;27407;24.142;-110.310;2023-05-07T05:05:02;36.47;;;4.63;;
41721;SDS011;27407;24.142;-110.310;2023-05-07T05:07:29;87.95;;;9.35;;
41721;SDS011;27407;24.142;-110.310;2023-05-07T05:09:56;78.95;;;8.25;;
41721;SDS011;27407;24.142;-110.310;2023-05-07T05:12:23;70.90;;;7.20;;
41721;SDS011;27407;24.142;-110.310;2023-05-07T05:14:49;49.63;;;7.07;;
41721;SDS011;27407;24.142;-110.310;2023-05-07T05:17:16;46.03;;;7.55;;
41721;SDS011;27407;24.142;-110.310;2023-05-07T05:19:43;92.68;;;10.45;;
41721;SDS011;27407;24.142;-110.310;2023-05-07T05:22:09;112.60;;;9.60;;
41721;SDS011;27407;24.142;-110.310;2023-05-07T05:24:36;141.27;;;14.43;;
41721;SDS011;27407;24.142;-110.310;2023-05-07T05:27:03;124.65;;;11.27;;
41721;SDS011;27407;24.142;-110.310;2023-05-07T05:29:29;78.32;;;10.43;;
41721;SDS011;27407;24.142;-110.310;2023-05-07T05:31:59;163.90;;;15.93;;
41721;SDS011;27407;24.142;-110.310;2023-05-07T05:34:26;123.05;;;10.82;;
41721;SDS011;27407;24.142;-110.310;2023-05-07T05:36:52;151.18;;;12.93;;
41721;SDS011;27407;24.142;-110.310;2023-05-07T05:39:19;124.97;;;12.10;;
41721;SDS011;27407;24.142;-110.310;2023-05-07T05:41:46;109.53;;;10.57;;
41721;SDS011;27407;24.142;-110.310;2023-05-07T05:44:13;113.73;;;9.67;;
41721;SDS011;27407;24.142;-110.310;2023-05-07T05:46:40;78.53;;;9.20;;
41721;SDS011;27407;24.142;-110.310;2023-05-07T05:49:06;109.57;;;9.40;;
41721;SDS011;27407;24.142;-110.310;2023-05-07T05:51:33;58.77;;;5.83;;
41721;SDS011;27407;24.142;-110.310;2023-05-07T05:54:00;62.73;;;6.07;;
41721;SDS011;27407;24.142;-110.310;2023-05-07T05:56:27;26.20;;;3.87;;
41721;SDS011;27407;24.142;-110.310;2023-05-07T05:58:53;27.20;;;3.40;;
41721;SDS011;27407;24.142;-110.310;2023-05-07T06:01:20;42.20;;;3.87;;
41721;SDS011;27407;24.142;-110.310;2023-05-07T06:03:47;27.03;;;3.80;;
41721;SDS011;27407;24.142;-110.310;2023-05-07T06:06:14;30.73;;;4.47;;
41721;SDS011;27407;24.142;-110.310;2023-05-07T06:08:40;49.07;;;5.73;;
41721;SDS011;27407;24.142;-110.310;2023-05-07T06:11:07;42.90;;;4.33;;
41721;SDS011;27407;24.142;-110.310;2023-05-07T06:13:34;39.97;;;4.50;;
41721;SDS011;27407;24.142;-110.310;2023-05-07T06:16:00;46.97;;;4.17;;
41721;SDS011;27407;24.142;-110.310;2023-05-07T06:18:27;31.27;;;3.60;;
41721;SDS011;27407;24.142;-110.310;2023-05-07T06:20:54;33.87;;;3.10;;
41721;SDS011;27407;24.142;-110.310;2023-05-07T06:23:20;33.37;;;4.00;;
41721;SDS011;27407;24.142;-110.310;2023-05-07T06:25:51;49.30;;;5.18;;
41721;SDS011;27407;24.142;-110.310;2023-05-07T06:28:17;97.10;;;9.27;;
41721;SDS011;27407;24.142;-110.310;2023-05-07T06:30:44;48.67;;;4.73;;
41721;SDS011;27407;24.142;-110.310;2023-05-07T06:33:10;29.50;;;3.50;;
41721;SDS011;27407;24.142;-110.310;2023-05-07T06:35:37;27.47;;;3.07;;
41721;SDS011;27407;24.142;-110.310;2023-05-07T06:38:04;26.20;;;3.60;;
41721;SDS011;27407;24.142;-110.310;2023-05-07T06:40:30;22.33;;;2.90;;
41721;SDS011;27407;24.142;-110.310;2023-05-07T06:42:57;28.70;;;3.13;;
41721;SDS011;27407;24.142;-110.310;2023-05-07T06:45:24;21.70;;;2.93;;
41721;SDS011;27407;24.142;-110.310;2023-05-07T06:47:50;23.67;;;2.90;;
41721;SDS011;27407;24.142;-110.310;2023-05-07T06:50:17;24.23;;;3.17;;
41721;SDS011;27407;24.142;-110.310;2023-05-07T06:52:43;35.13;;;3.83;;
41721;SDS011;27407;24.142;-110.310;2023-05-07T06:55:10;45.67;;;4.70;;
41721;SDS011;27407;24.142;-110.310;2023-05-07T06:57:37;38.55;;;4.88;;
41721;SDS011;27407;24.142;-110.310;2023-05-07T07:00:04;33.03;;;3.87;;
41721;SDS011;27407;24.142;-110.310;2023-05-07T07:02:34;60.50;;;5.63;;
41721;SDS011;27407;24.142;-110.310;2023-05-07T07:05:00;47.50;;;5.63;;
41721;SDS011;27407;24.142;-110.310;2023-05-07T07:07:27;42.40;;;4.93;;
41721;SDS011;27407;24.142;-110.310;2023-05-07T07:09:54;46.30;;;4.90;;
41721;SDS011;27407;24.142;-110.310;2023-05-07T07:12:20;50.70;;;4.85;;
41721;SDS011;27407;24.142;-110.310;2023-05-07T07:14:49;55.47;;;5.77;;
41721;SDS011;27407;24.142;-110.310;2023-05-07T07:17:16;77.80;;;8.67;;
41721;SDS011;27407;24.142;-110.310;2023-05-07T07:19:43;75.70;;;8.83;;
41721;SDS011;27407;24.142;-110.310;2023-05-07T07:22:09;85.83;;;8.50;;
41721;SDS011;27407;24.142;-110.310;2023-05-07T07:24:36;23.80;;;3.83;;
41721;SDS011;27407;24.142;-110.310;2023-05-07T07:27:03;25.17;;;2.27;;
41721;SDS011;27407;24.142;-110.310;2023-05-07T07:29:34;17.87;;;2.40;;
41721;SDS011;27407;24.142;-110.310;2023-05-07T07:32:01;39.47;;;2.30;;
41721;SDS011;27407;24.142;-110.310;2023-05-07T07:34:28;8.63;;;1.60;;
41721;SDS011;27407;24.142;-110.310;2023-05-07T07:36:55;16.17;;;1.60;;
41721;SDS011;27407;24.142;-110.310;2023-05-07T07:39:24;14.80;;;1.83;;
41721;SDS011;27407;24.142;-110.310;2023-05-07T07:41:51;41.33;;;4.33;;
41721;SDS011;27407;24.142;-110.310;2023-05-07T07:44:17;16.97;;;1.63;;
41721;SDS011;27407;24.142;-110.310;2023-05-07T07:46:44;18.60;;;2.23;;
41721;SDS011;27407;24.142;-110.310;2023-05-07T07:49:10;21.63;;;2.33;;
41721;SDS011;27407;24.142;-110.310;2023-05-07T07:51:37;17.20;;;2.30;;
41721;SDS011;27407;24.142;-110.310;2023-05-07T07:54:04;20.10;;;2.47;;
41721;SDS011;27407;24.142;-110.310;2023-05-07T07:56:32;19.27;;;3.10;;
41721;SDS011;27407;24.142;-110.310;2023-05-07T07:58:59;11.80;;;2.20;;
41721;SDS011;27407;24.142;-110.310;2023-05-07T08:01:26;14.10;;;2.03;;
41721;SDS011;27407;24.142;-110.310;2023-05-07T08:03:55;18.53;;;2.17;;
41721;SDS011;27407;24.142;-110.310;2023-05-07T08:06:24;14.73;;;2.10;;
41721;SDS011;27407;24.142;-110.310;2023-05-07T08:08:52;7.27;;;1.87;;
41721;SDS011;27407;24.142;-110.310;2023-05-07T08:11:18;10.40;;;1.13;;
41721;SDS011;27407;24.142;-110.310;2023-05-07T08:13:46;17.40;;;1.60;;
41721;SDS011;27407;24.142;-110.310;2023-05-07T08:16:16;17.13;;;2.03;;
41721;SDS011;27407;24.142;-110.310;2023-05-07T08:18:43;12.53;;;1.53;;
41721;SDS011;27407;24.142;-110.310;2023-05-07T08:21:09;13.30;;;1.80;;
41721;SDS011;27407;24.142;-110.310;2023-05-07T08:23:36;15.47;;;1.60;;
41721;SDS011;27407;24.142;-110.310;2023-05-07T08:26:06;8.80;;;1.27;;
41721;SDS011;27407;24.142;-110.310;2023-05-07T08:28:36;8.47;;;1.73;;
41721;SDS011;27407;24.142;-110.310;2023-05-07T08:31:03;4.83;;;1.47;;
41721;SDS011;27407;24.142;-110.310;2023-05-07T08:33:30;6.07;;;1.50;;
41721;SDS011;27407;24.142;-110.310;2023-05-07T08:35:57;7.40;;;1.60;;
41721;SDS011;27407;24.142;-110.310;2023-05-07T08:38:23;14.80;;;1.77;;
41721;SDS011;27407;24.142;-110.310;2023-05-07T08:40:50;9.43;;;1.60;;
41721;SDS011;27407;24.142;-110.310;2023-05-07T08:43:17;6.60;;;1.43;;
41721;SDS011;27407;24.142;-110.310;2023-05-07T08:45:47;7.87;;;1.93;;
41721;SDS011;27407;24.142;-110.310;2023-05-07T08:48:18;7.30;;;1.63;;
41721;SDS011;27407;24.142;-110.310;2023-05-07T08:50:49;4.33;;;1.40;;
41721;SDS011;27407;24.142;-110.310;2023-05-07T08:53:16;7.30;;;1.50;;
41721;SDS011;27407;24.142;-110.310;2023-05-07T08:55:45;11.00;;;1.43;;
41721;SDS011;27407;24.142;-110.310;2023-05-07T08:58:13;11.43;;;1.50;;
41721;SDS011;27407;24.142;-110.310;2023-05-07T09:00:40;10.60;;;1.70;;
41721;SDS011;27407;24.142;-110.310;2023-05-07T09:03:07;10.57;;;1.60;;
41721;SDS011;27407;24.142;-110.310;2023-05-07T09:05:37;10.67;;;1.93;;
41721;SDS011;27407;24.142;-110.310;2023-05-07T09:08:05;15.03;;;2.37;;
41721;SDS011;27407;24.142;-110.310;2023-05-07T09:10:33;7.27;;;1.40;;
41721;SDS011;27407;24.142;-110.310;2023-05-07T09:13:00;10.93;;;1.80;;
41721;SDS011;27407;24.142;-110.310;2023-05-07T09:15:28;13.03;;;1.97;;
41721;SDS011;27407;24.142;-110.310;2023-05-07T09:17:58;13.43;;;1.77;;
41721;SDS011;27407;24.142;-110.310;2023-05-07T09:20:26;7.37;;;1.93;;
41721;SDS011;27407;24.142;-110.310;2023-05-07T09:22:55;13.33;;;1.77;;
41721;SDS011;27407;24.142;-110.310;2023-05-07T09:25:32;10.93;;;1.60;;
41721;SDS011;27407;24.142;-110.310;2023-05-07T09:27:59;21.93;;;3.00;;
41721;SDS011;27407;24.142;-110.310;2023-05-07T09:30:30;13.30;;;2.57;;
41721;SDS011;27407;24.142;-110.310;2023-05-07T09:32:59;18.00;;;2.43;;
41721;SDS011;27407;24.142;-110.310;2023-05-07T09:35:27;15.13;;;2.90;;
41721;SDS011;27407;24.142;-110.310;2023-05-07T09:37:58;18.60;;;2.60;;
41721;SDS011;27407;24.142;-110.310;2023-05-07T09:40:28;14.20;;;3.03;;
41721;SDS011;27407;24.142;-110.310;2023-05-07T09:42:56;24.10;;;2.70;;
41721;SDS011;27407;24.142;-110.310;2023-05-07T09:45:38;21.87;;;2.47;;
41721;SDS011;27407;24.142;-110.310;2023-05-07T09:48:06;39.23;;;4.17;;
41721;SDS011;27407;24.142;-110.310;2023-05-07T09:50:38;18.77;;;3.03;;
41721;SDS011;27407;24.142;-110.310;2023-05-07T09:53:14;13.17;;;2.60;;
41721;SDS011;27407;24.142;-110.310;2023-05-07T09:55:41;12.20;;;1.80;;
41721;SDS011;27407;24.142;-110.310;2023-05-07T09:58:08;21.33;;;2.33;;
41721;SDS011;27407;24.142;-110.310;2023-05-07T10:00:37;27.50;;;3.07;;
41721;SDS011;27407;24.142;-110.310;2023-05-07T10:03:07;24.80;;;3.40;;
41721;SDS011;27407;24.142;-110.310;2023-05-07T10:05:36;18.30;;;3.33;;
41721;SDS011;27407;24.142;-110.310;2023-05-07T10:08:03;16.50;;;3.00;;
41721;SDS011;27407;24.142;-110.310;2023-05-07T10:10:32;22.03;;;3.33;;
41721;SDS011;27407;24.142;-110.310;2023-05-07T10:13:00;30.97;;;3.97;;
41721;SDS011;27407;24.142;-110.310;2023-05-07T10:15:30;21.10;;;3.07;;
41721;SDS011;27407;24.142;-110.310;2023-05-07T10:17:57;17.80;;;2.80;;
41721;SDS011;27407;24.142;-110.310;2023-05-07T10:20:25;26.63;;;3.77;;
41721;SDS011;27407;24.142;-110.310;2023-05-07T10:22:52;26.23;;;3.20;;
41721;SDS011;27407;24.142;-110.310;2023-05-07T10:25:23;21.17;;;3.27;;
41721;SDS011;27407;24.142;-110.310;2023-05-07T10:27:55;20.70;;;3.30;;
41721;SDS011;27407;24.142;-110.310;2023-05-07T10:33:16;25.07;;;3.40;;
41721;SDS011;27407;24.142;-110.310;2023-05-07T10:35:48;26.30;;;3.53;;
41721;SDS011;27407;24.142;-110.310;2023-05-07T10:38:15;29.10;;;3.57;;
41721;SDS011;27407;24.142;-110.310;2023-05-07T10:40:43;26.57;;;4.30;;
41721;SDS011;27407;24.142;-110.310;2023-05-07T10:43:10;31.40;;;4.30;;
41721;SDS011;27407;24.142;-110.310;2023-05-07T10:45:37;18.40;;;3.00;;
41721;SDS011;27407;24.142;-110.310;2023-05-07T10:48:13;18.90;;;3.07;;
41721;SDS011;27407;24.142;-110.310;2023-05-07T10:50:43;24.43;;;3.83;;
41721;SDS011;27407;24.142;-110.310;2023-05-07T10:55:44;37.83;;;4.23;;
41721;SDS011;27407;24.142;-110.310;2023-05-07T11:00:47;21.13;;;3.67;;
41721;SDS011;27407;24.142;-110.310;2023-05-07T11:03:14;27.47;;;4.33;;
41721;SDS011;27407;24.142;-110.310;2023-05-07T11:05:41;23.13;;;3.50;;
41721;SDS011;27407;24.142;-110.310;2023-05-07T11:08:09;24.67;;;3.53;;
41721;SDS011;27407;24.142;-110.310;2023-05-07T11:16:16;20.37;;;3.93;;
41721;SDS011;27407;24.142;-110.310;2023-05-07T11:18:52;19.60;;;3.67;;
41721;SDS011;27407;24.142;-110.310;2023-05-07T11:21:39;25.90;;;3.33;;
41721;SDS011;27407;24.142;-110.310;2023-05-07T11:24:09;31.87;;;4.87;;
41721;SDS011;27407;24.142;-110.310;2023-05-07T11:29:12;23.53;;;4.27;;
41721;SDS011;27407;24.142;-110.310;2023-05-07T11:31:40;22.20;;;3.83;;
41721;SDS011;27407;24.142;-110.310;2023-05-07T11:34:07;26.93;;;3.60;;
41721;SDS011;27407;24.142;-110.310;2023-05-07T11:36:34;21.13;;;3.63;;
41721;SDS011;27407;24.142;-110.310;2023-05-07T11:39:22;26.20;;;4.10;;
41721;SDS011;27407;24.142;-110.310;2023-05-07T11:41:59;25.00;;;4.27;;
41721;SDS011;27407;24.142;-110.310;2023-05-07T11:44:42;32.23;;;3.80;;
41721;SDS011;27407;24.142;-110.310;2023-05-07T11:47:11;26.10;;;4.43;;
41721;SDS011;27407;24.142;-110.310;2023-05-07T11:49:43;42.13;;;4.50;;
41721;SDS011;27407;24.142;-110.310;2023-05-07T11:52:12;217.07;;;20.30;;
41721;SDS011;27407;24.142;-110.310;2023-05-07T11:54:39;187.60;;;15.30;;
41721;SDS011;27407;24.142;-110.310;2023-05-07T11:57:06;90.30;;;8.27;;
41721;SDS011;27407;24.142;-110.310;2023-05-07T11:59:40;70.20;;;7.87;;
41721;SDS011;27407;24.142;-110.310;2023-05-07T12:02:07;71.03;;;7.77;;
41721;SDS011;27407;24.142;-110.310;2023-05-07T12:04:34;66.53;;;7.00;;
41721;SDS011;27407;24.142;-110.310;2023-05-07T12:07:00;48.53;;;6.57;;
41721;SDS011;27407;24.142;-110.310;2023-05-07T12:09:27;35.57;;;5.97;;
41721;SDS011;27407;24.142;-110.310;2023-05-07T12:11:55;24.53;;;4.00;;
41721;SDS011;27407;24.142;-110.310;2023-05-07T12:14:21;26.57;;;4.33;;
41721;SDS011;27407;24.142;-110.310;2023-05-07T12:16:52;25.13;;;4.13;;
41721;SDS011;27407;24.142;-110.310;2023-05-07T12:19:19;31.20;;;4.07;;
41721;SDS011;27407;24.142;-110.310;2023-05-07T12:21:46;29.07;;;4.40;;
41721;SDS011;27407;24.142;-110.310;2023-05-07T12:24:14;28.33;;;5.37;;
41721;SDS011;27407;24.142;-110.310;2023-05-07T12:26:40;37.53;;;5.50;;
41721;SDS011;27407;24.142;-110.310;2023-05-07T12:29:07;46.27;;;6.17;;
41721;SDS011;27407;24.142;-110.310;2023-05-07T12:31:34;40.70;;;6.37;;
41721;SDS011;27407;24.142;-110.310;2023-05-07T12:34:00;59.53;;;6.13;;
41721;SDS011;27407;24.142;-110.310;2023-05-07T12:36:36;33.07;;;4.50;;
41721;SDS011;27407;24.142;-110.310;2023-05-07T12:39:07;27.70;;;4.57;;
41721;SDS011;27407;24.142;-110.310;2023-05-07T12:41:53;34.40;;;5.53;;
41721;SDS011;27407;24.142;-110.310;2023-05-07T12:44:24;36.80;;;5.13;;
41721;SDS011;27407;24.142;-110.310;2023-05-07T12:46:54;40.70;;;5.33;;
41721;SDS011;27407;24.142;-110.310;2023-05-07T12:49:21;42.47;;;5.10;;
41721;SDS011;27407;24.142;-110.310;2023-05-07T12:51:48;31.60;;;4.97;;
41721;SDS011;27407;24.142;-110.310;2023-05-07T12:54:34;39.67;;;5.53;;
41721;SDS011;27407;24.142;-110.310;2023-05-07T12:57:04;40.17;;;5.73;;
41721;SDS011;27407;24.142;-110.310;2023-05-07T13:01:59;43.67;;;5.73;;
41721;SDS011;27407;24.142;-110.310;2023-05-07T13:04:25;30.53;;;4.50;;
41721;SDS011;27407;24.142;-110.310;2023-05-07T13:06:52;51.47;;;6.03;;
41721;SDS011;27407;24.142;-110.310;2023-05-07T13:09:19;44.40;;;5.10;;
41721;SDS011;27407;24.142;-110.310;2023-05-07T13:11:45;45.93;;;5.63;;
41721;SDS011;27407;24.142;-110.310;2023-05-07T13:14:12;166.97;;;12.37;;
41721;SDS011;27407;24.142;-110.310;2023-05-07T13:16:42;100.03;;;13.23;;
41721;SDS011;27407;24.142;-110.310;2023-05-07T13:19:08;70.77;;;8.83;;
41721;SDS011;27407;24.142;-110.310;2023-05-07T13:21:38;84.30;;;11.47;;
41721;SDS011;27407;24.142;-110.310;2023-05-07T13:24:04;82.50;;;12.20;;
41721;SDS011;27407;24.142;-110.310;2023-05-07T13:26:31;89.83;;;12.70;;
41721;SDS011;27407;24.142;-110.310;2023-05-07T13:28:58;47.67;;;6.73;;
41721;SDS011;27407;24.142;-110.310;2023-05-07T13:31:25;56.97;;;9.00;;
41721;SDS011;27407;24.142;-110.310;2023-05-07T13:33:51;30.93;;;4.73;;
41721;SDS011;27407;24.142;-110.310;2023-05-07T13:36:18;36.97;;;5.50;;
41721;SDS011;27407;24.142;-110.310;2023-05-07T13:38:47;34.77;;;5.10;;
41721;SDS011;27407;24.142;-110.310;2023-05-07T13:41:14;42.83;;;4.47;;
41721;SDS011;27407;24.142;-110.310;2023-05-07T13:43:41;58.07;;;9.63;;
41721;SDS011;27407;24.142;-110.310;2023-05-07T13:46:08;63.83;;;10.57;;
41721;SDS011;27407;24.142;-110.310;2023-05-07T13:48:34;55.90;;;12.57;;
41721;SDS011;27407;24.142;-110.310;2023-05-07T13:51:04;56.90;;;10.20;;
41721;SDS011;27407;24.142;-110.310;2023-05-07T13:53:30;54.03;;;7.30;;
41721;SDS011;27407;24.142;-110.310;2023-05-07T13:55:57;48.50;;;8.20;;
41721;SDS011;27407;24.142;-110.310;2023-05-07T13:58:24;43.67;;;6.53;;
41721;SDS011;27407;24.142;-110.310;2023-05-07T14:00:50;49.03;;;6.27;;
41721;SDS011;27407;24.142;-110.310;2023-05-07T14:03:17;35.30;;;6.03;;
41721;SDS011;27407;24.142;-110.310;2023-05-07T14:05:44;38.87;;;7.37;;
41721;SDS011;27407;24.142;-110.310;2023-05-07T14:08:11;33.53;;;6.17;;
41721;SDS011;27407;24.142;-110.310;2023-05-07T14:10:39;47.50;;;6.67;;
41721;SDS011;27407;24.142;-110.310;2023-05-07T14:13:06;37.87;;;5.93;;
41721;SDS011;27407;24.142;-110.310;2023-05-07T14:15:32;34.10;;;7.13;;
41721;SDS011;27407;24.142;-110.310;2023-05-07T14:17:59;45.97;;;6.97;;